Terminal Aerodrome Forecast
Issued by NWS

Home | Current Version | Previous Version | Text Only | Print | Product List | Glossary On
Versions: 1 2 3 4 5 6 7 8 9 10 11 12 13 14
000
FTUS44 KLZK 181400 AAA
TAFLLQ
TAF AMD
KLLQ 181419Z 1814/1912 12005KT P6SM SCT005 OVC035
      TEMPO 1814/1816 -RA BKN005
     FM181600 11004KT P6SM SCT008 OVC020
      TEMPO 1816/1820 5SM -DZ OVC008
     FM182000 11003KT P6SM OVC018
     FM190200 04006KT P6SM BKN015 OVC025=

USA.gov is the U.S. government's official web portal to all federal, state and local government web resources and services.